Narrandera, New South Wales

6:28 PM AEST on August 26, 2016 (GMT +1000)
LEETON | | Change Station

Elev 453 ft 34.55 °S, 146.37 °E | Updated 7 seconds ago

Scattered Clouds
Scattered Clouds
48.7 °F
Feels Like 49 °F
N
2.0
Wind Variable Wind from North
Gusts 4.5 mph

Today
High -- | Low -- °F
--% Chance of Precip.
Yesterday
High -- | Low -- °F
Precip. -- in
Pressure 30.18 in
Visibility 6.2 miles
Clouds Scattered Clouds 5400 ft
Windchill 49 °F
Dew Point 39 °F
Humidity 69%
Rainfall 0.00 in
Snow Depth Not available.
6:40 AM 5:51 PM
Last Quarter, 37% visible
METAR YGTH 260800Z AUTO 22007KT 9999 // SCT054 09/03 Q1022
Pressure 30.18 in
Visibility 6.2 miles
Clouds Scattered Clouds 5400 ft
Windchill 49 °F
Dew Point 39 °F
Humidity 69%
Rainfall 0.00 in
Snow Depth Not available.
6:40 AM 5:51 PM
Last Quarter, 37% visible
METAR YGTH 260800Z AUTO 22007KT 9999 // SCT054 09/03 Q1022

10-Day Weather Forecast

Almanac

Astronomy

Aug. 26, 2016 Rise Set
Actual Time
Civil Twilight
Nautical Twilight
Astronomical Twilight
Moon
Length of Visible Light
Length of Day
Tomorrow will be .
, % of the Moon is Illuminated

Today's Extremes

Country Highs Country Lows

Community

WunderPhotos

Upload Photos

1,935,062 photos uploaded!

WunderBlog® & News

Nearby

Air Quality

  Air Quality AQ Index Pollutant
Not available.

Snow Depth

Station Depth Elevation

Earthquake Activity

City Distance Mag. Time & Date
Minimum magnitude displayed is 2.5.

Coastal Water Temperatures

Place Temperature

Stations

Nearby Weather Stations

Station Location Temp. Windchill Dew Point Humidity Wind Precip. Elev Updated Type